Time;durP1;ratioP1;P1;durP2;ratioP2;P2;SDS_P1;SDS_P2;PMS_P1;PMS_P2;Temp;Humidity;BMP_temperature;BMP_pressure;BME280_temperature;BME280_humidity;BME280_pressure;Samples;Min_cycle;Max_cycle;Signal;HPM_P1;HPM_P2
2022/09/09 00:01:44;;;;;;;5.93;2.10;;;14.20;99.90;;;;;;5045632;28;20617;-80
2022/09/09 00:04:19;;;;;;;3.60;2.17;;;14.10;99.90;;;;;;5042916;28;20644;-80
2022/09/09 00:06:50;;;;;;;5.20;2.50;;;14.10;99.90;;;;;;5039253;28;21039;-80
2022/09/09 00:09:19;;;;;;;3.60;2.30;;;14.10;99.90;;;;;;5041032;28;20665;-80
2022/09/09 00:11:50;;;;;;;3.23;2.17;;;14.10;99.90;;;;;;5040810;28;21196;-80
2022/09/09 00:14:24;;;;;;;10.20;2.60;;;14.10;99.90;;;;;;5041712;28;20637;-80
2022/09/09 00:16:56;;;;;;;9.00;3.03;;;14.10;99.90;;;;;;5042605;28;20623;-80
2022/09/09 00:19:28;;;;;;;3.93;2.43;;;14.10;99.90;;;;;;5044889;28;20654;-80
2022/09/09 00:22:05;;;;;;;5.20;2.43;;;14.10;99.90;;;;;;5042365;28;20619;-80
2022/09/09 00:24:39;;;;;;;4.17;2.20;;;14.10;99.90;;;;;;5041899;28;20625;-80
2022/09/09 00:27:15;;;;;;;6.00;2.57;;;14.10;99.90;;;;;;5045404;28;20654;-80
2022/09/09 00:29:45;;;;;;;5.60;3.10;;;14.10;99.90;;;;;;5044438;28;21702;-80
2022/09/09 00:32:14;;;;;;;5.30;3.27;;;14.10;99.90;;;;;;5046470;28;20625;-80
2022/09/09 00:34:47;;;;;;;3.83;3.07;;;14.10;99.90;;;;;;5052607;28;20617;-80
2022/09/09 00:37:15;;;;;;;6.10;3.60;;;14.10;99.90;;;;;;5042513;28;20625;-80
2022/09/09 00:39:43;;;;;;;7.13;2.93;;;14.20;99.90;;;;;;5041135;28;20641;-79
2022/09/09 00:42:16;;;;;;;4.60;2.93;;;14.20;99.90;;;;;;5044116;28;20641;-80
2022/09/09 00:44:53;;;;;;;6.40;2.53;;;14.20;99.90;;;;;;5040573;28;20629;-80
2022/09/09 00:47:39;;;;;;;4.47;2.80;;;14.30;99.90;;;;;;5038888;28;20634;-80
2022/09/09 00:50:34;;;;;;;3.77;2.40;;;14.40;99.90;;;;;;5042721;28;20637;-80
2022/09/09 00:53:13;;;;;;;5.43;2.80;;;14.40;99.90;;;;;;5042800;28;21016;-80
2022/09/09 00:55:45;;;;;;;5.70;2.27;;;14.40;99.90;;;;;;5042070;28;21221;-80
2022/09/09 00:58:13;;;;;;;8.87;2.50;;;14.50;99.90;;;;;;5044260;28;21156;-80
2022/09/09 01:00:44;;;;;;;2.73;2.00;;;14.50;99.90;;;;;;5043971;28;20618;-79
2022/09/09 01:03:26;;;;;;;4.10;2.23;;;14.60;99.90;;;;;;5042223;28;20634;-80
2022/09/09 01:06:12;;;;;;;5.03;1.87;;;14.60;99.90;;;;;;5038847;28;20669;-80
2022/09/09 01:09:11;;;;;;;3.53;1.80;;;14.60;99.90;;;;;;5043160;28;20995;-80
2022/09/09 01:11:46;;;;;;;4.73;1.80;;;14.60;99.90;;;;;;4986083;28;20641;-80
2022/09/09 01:14:30;;;;;;;2.43;1.87;;;14.60;99.90;;;;;;5044391;28;20621;-80
2022/09/09 01:17:00;;;;;;;3.57;1.70;;;14.60;99.90;;;;;;5040032;28;20622;-80
2022/09/09 01:19:40;;;;;;;3.43;1.50;;;14.60;99.90;;;;;;5044492;28;20719;-80
2022/09/09 01:22:16;;;;;;;4.27;1.60;;;14.60;99.90;;;;;;5049431;28;20632;-80
2022/09/09 01:24:49;;;;;;;4.03;1.50;;;14.60;99.90;;;;;;5044446;28;20671;-80
2022/09/09 01:27:20;;;;;;;2.23;1.53;;;14.70;99.90;;;;;;5049064;28;20622;-81
2022/09/09 01:29:47;;;;;;;3.43;1.90;;;14.60;99.90;;;;;;5045650;28;20657;-80
2022/09/09 01:32:39;;;;;;;2.83;1.37;;;14.70;99.90;;;;;;5044968;28;20634;-80
2022/09/09 01:35:08;;;;;;;2.43;1.63;;;14.60;99.90;;;;;;5046244;28;20633;-80
2022/09/09 01:37:35;;;;;;;4.40;1.47;;;14.60;99.90;;;;;;5044130;28;20630;-80
2022/09/09 01:40:02;;;;;;;2.93;1.37;;;14.60;99.90;;;;;;5045829;28;21241;-80
2022/09/09 01:42:30;;;;;;;5.40;1.40;;;14.60;99.90;;;;;;5047778;28;20621;-80
2022/09/09 01:44:57;;;;;;;2.97;1.70;;;14.60;99.90;;;;;;5047804;28;20633;-80
2022/09/09 01:47:24;;;;;;;2.60;1.47;;;14.60;99.90;;;;;;5046962;28;20634;-80
2022/09/09 01:49:50;;;;;;;3.00;1.37;;;14.60;99.90;;;;;;5044766;28;20646;-81
2022/09/09 01:52:17;;;;;;;2.80;1.50;;;14.60;99.90;;;;;;5047960;28;20629;-80
2022/09/09 01:54:44;;;;;;;4.87;1.70;;;14.60;99.90;;;;;;5046309;28;20625;-81
2022/09/09 01:57:19;;;;;;;3.90;1.50;;;14.60;99.90;;;;;;5047765;28;20992;-81
2022/09/09 02:00:08;;;;;;;4.90;1.10;;;14.60;99.90;;;;;;5045109;28;21365;-81
2022/09/09 02:02:43;;;;;;;2.67;1.23;;;14.60;99.90;;;;;;5042910;28;20736;-80
2022/09/09 02:05:18;;;;;;;7.17;1.53;;;14.50;99.90;;;;;;5041756;28;21175;-81
2022/09/09 02:07:49;;;;;;;2.60;1.13;;;14.50;99.90;;;;;;5040051;28;20653;-81
2022/09/09 02:10:22;;;;;;;1.60;1.10;;;14.50;99.90;;;;;;5044973;28;20633;-80
2022/09/09 02:12:55;;;;;;;1.70;1.00;;;14.50;99.90;;;;;;5050076;28;20625;-81
2022/09/09 02:15:29;;;;;;;1.70;1.30;;;14.50;99.90;;;;;;5041653;28;20625;-81
2022/09/09 02:17:59;;;;;;;3.23;1.37;;;14.50;99.90;;;;;;5042663;28;20630;-81
2022/09/09 02:20:27;;;;;;;2.20;1.43;;;14.50;99.90;;;;;;5044269;28;21219;-81
2022/09/09 02:22:56;;;;;;;2.67;1.10;;;14.40;99.90;;;;;;5046184;28;20626;-81
2022/09/09 02:25:26;;;;;;;3.37;1.30;;;14.40;99.90;;;;;;5044423;28;20666;-81
2022/09/09 02:27:53;;;;;;;2.67;1.20;;;14.40;99.90;;;;;;5046377;28;21251;-81
2022/09/09 02:30:21;;;;;;;2.73;1.30;;;14.30;99.90;;;;;;5044339;28;20660;-81
2022/09/09 02:32:53;;;;;;;2.77;1.27;;;14.30;99.90;;;;;;5041816;28;21195;-80
2022/09/09 02:35:26;;;;;;;3.00;1.30;;;14.30;99.90;;;;;;5046222;28;20625;-81
2022/09/09 02:37:55;;;;;;;1.90;1.30;;;14.20;99.90;;;;;;5043803;28;21183;-81
2022/09/09 02:40:22;;;;;;;3.43;1.70;;;14.30;99.90;;;;;;5043965;28;20630;-81
2022/09/09 02:42:50;;;;;;;3.93;1.60;;;14.20;99.90;;;;;;5043367;28;20979;-80
2022/09/09 02:45:20;;;;;;;2.80;1.43;;;14.20;99.90;;;;;;5042710;28;21375;-80
2022/09/09 02:47:56;;;;;;;3.47;1.60;;;14.10;99.90;;;;;;5044213;28;20669;-80
2022/09/09 02:50:27;;;;;;;2.57;1.47;;;14.10;99.90;;;;;;5042876;28;20640;-80
2022/09/09 02:53:02;;;;;;;2.40;1.00;;;14.00;99.90;;;;;;5043443;28;20623;-80
2022/09/09 02:55:39;;;;;;;1.43;1.00;;;14.00;99.90;;;;;;5043485;28;20636;-81
2022/09/09 02:58:10;;;;;;;2.67;1.40;;;14.10;99.90;;;;;;5043908;28;20662;-80
2022/09/09 03:00:37;;;;;;;2.07;1.80;;;14.00;99.90;;;;;;5045796;28;20641;-80
2022/09/09 03:03:06;;;;;;;2.00;1.03;;;13.90;99.90;;;;;;5048045;28;20623;-80
2022/09/09 03:05:33;;;;;;;3.07;1.30;;;13.90;99.90;;;;;;5042928;28;21024;-80
2022/09/09 03:07:59;;;;;;;3.57;2.63;;;13.80;99.90;;;;;;5042337;28;20628;-81
2022/09/09 03:10:26;;;;;;;2.87;1.30;;;13.80;99.90;;;;;;5043790;28;20666;-80
2022/09/09 03:12:53;;;;;;;3.87;1.60;;;13.80;99.90;;;;;;5045947;28;20622;-80
2022/09/09 03:15:20;;;;;;;9.23;1.60;;;13.70;99.90;;;;;;5043224;28;20637;-81
2022/09/09 03:17:47;;;;;;;4.10;1.70;;;13.70;99.90;;;;;;5044163;28;21008;-80
2022/09/09 03:20:15;;;;;;;3.50;2.13;;;13.70;99.90;;;;;;5046203;28;20618;-80
2022/09/09 03:22:41;;;;;;;5.10;1.47;;;13.70;99.90;;;;;;5045257;28;21214;-81
2022/09/09 03:25:09;;;;;;;2.70;1.60;;;13.80;99.90;;;;;;5042143;28;20654;-81
2022/09/09 03:27:36;;;;;;;4.27;2.20;;;13.80;99.90;;;;;;5044903;28;20672;-81
2022/09/09 03:30:03;;;;;;;2.77;1.90;;;13.80;99.90;;;;;;5042379;28;20697;-81
2022/09/09 03:32:31;;;;;;;3.57;1.90;;;13.80;99.90;;;;;;5042981;28;20638;-80
2022/09/09 03:34:58;;;;;;;5.47;1.60;;;13.80;99.90;;;;;;5042603;28;20705;-80
2022/09/09 03:37:26;;;;;;;7.77;2.83;;;13.80;99.90;;;;;;5042337;28;20630;-80
2022/09/09 03:39:54;;;;;;;4.00;2.07;;;13.80;99.90;;;;;;5042481;28;21020;-80
2022/09/09 03:42:21;;;;;;;3.23;2.00;;;13.80;99.90;;;;;;5043995;28;21218;-80
2022/09/09 03:44:49;;;;;;;4.90;2.70;;;13.80;99.90;;;;;;5039937;28;20633;-80
2022/09/09 03:47:16;;;;;;;4.33;2.37;;;13.80;99.90;;;;;;5045049;28;20720;-80
2022/09/09 03:49:43;;;;;;;4.60;2.90;;;13.80;99.90;;;;;;5040831;28;20645;-78
2022/09/09 03:52:10;;;;;;;3.53;2.67;;;13.80;99.90;;;;;;5041905;28;20662;-80
2022/09/09 03:54:39;;;;;;;5.43;3.43;;;13.70;99.90;;;;;;5040898;28;20622;-80
2022/09/09 03:57:06;;;;;;;5.80;2.93;;;13.80;99.90;;;;;;5041004;28;21016;-80
2022/09/09 03:59:32;;;;;;;4.73;2.90;;;13.70;99.90;;;;;;5042266;28;20711;-80
2022/09/09 04:01:59;;;;;;;6.53;3.40;;;13.70;99.90;;;;;;5042622;28;20838;-82
2022/09/09 04:04:26;;;;;;;4.23;2.90;;;13.70;99.90;;;;;;5042431;28;20630;-81
2022/09/09 04:06:53;;;;;;;4.20;3.10;;;13.70;99.90;;;;;;5041694;28;20693;-80
2022/09/09 04:09:21;;;;;;;4.50;2.97;;;13.70;99.90;;;;;;5043023;28;20664;-81
2022/09/09 04:11:49;;;;;;;3.50;2.60;;;13.80;99.90;;;;;;5040011;28;20657;-81
2022/09/09 04:14:16;;;;;;;3.93;3.17;;;13.80;99.90;;;;;;5044653;28;20695;-80
2022/09/09 04:16:44;;;;;;;3.03;2.43;;;13.80;99.90;;;;;;5041439;28;20629;-80
2022/09/09 04:19:12;;;;;;;4.57;3.10;;;13.80;99.90;;;;;;5042860;28;20788;-80
2022/09/09 04:21:40;;;;;;;5.20;3.00;;;13.80;99.90;;;;;;5043591;28;20733;-81
2022/09/09 04:24:09;;;;;;;5.33;2.70;;;13.80;99.90;;;;;;5042937;28;20626;-80
2022/09/09 04:26:37;;;;;;;4.43;2.90;;;13.80;99.90;;;;;;5044953;28;20680;-80
2022/09/09 04:29:06;;;;;;;5.10;2.20;;;13.80;99.90;;;;;;5043644;28;20678;-80
2022/09/09 04:31:33;;;;;;;2.87;1.40;;;13.90;99.90;;;;;;5041569;28;20652;-80
2022/09/09 04:34:04;;;;;;;6.27;1.60;;;13.90;99.90;;;;;;5042280;28;20665;-80
2022/09/09 04:36:31;;;;;;;3.60;2.20;;;13.90;99.90;;;;;;5041102;28;21160;-80
2022/09/09 04:38:58;;;;;;;3.63;2.10;;;14.00;99.90;;;;;;5036900;28;20661;-80
2022/09/09 04:41:25;;;;;;;2.67;2.03;;;14.00;99.90;;;;;;5042062;28;20633;-80
2022/09/09 04:43:53;;;;;;;3.27;1.60;;;14.00;99.90;;;;;;5041997;28;20626;-80
2022/09/09 04:46:22;;;;;;;2.73;1.70;;;14.10;99.90;;;;;;5041227;28;21287;-80
2022/09/09 04:48:49;;;;;;;3.17;1.67;;;14.10;99.90;;;;;;5040661;28;20761;-80
2022/09/09 04:51:16;;;;;;;4.63;1.73;;;14.20;99.90;;;;;;5037745;28;20626;-80
2022/09/09 04:53:43;;;;;;;3.80;1.60;;;14.40;99.90;;;;;;5040140;28;20633;-80
2022/09/09 04:56:11;;;;;;;2.70;1.30;;;14.40;99.90;;;;;;5046384;28;20630;-80
2022/09/09 04:58:39;;;;;;;3.87;1.73;;;14.40;99.90;;;;;;5044297;28;20657;-80
2022/09/09 05:01:07;;;;;;;3.43;1.27;;;14.50;99.90;;;;;;5047123;28;20656;-81
2022/09/09 05:03:35;;;;;;;4.50;1.67;;;14.50;99.90;;;;;;5046369;28;21178;-80
2022/09/09 05:06:08;;;;;;;3.57;1.30;;;14.50;99.90;;;;;;5041901;28;20642;-80
2022/09/09 05:08:35;;;;;;;2.40;1.43;;;14.60;99.90;;;;;;5044987;28;20657;-80
2022/09/09 05:11:02;;;;;;;2.63;1.40;;;14.60;99.90;;;;;;5043226;28;20984;-81
2022/09/09 05:13:31;;;;;;;1.27;1.17;;;14.60;99.90;;;;;;5048230;28;21081;-81
2022/09/09 05:15:58;;;;;;;7.40;2.90;;;14.50;99.90;;;;;;5042667;28;20622;-81
2022/09/09 05:18:25;;;;;;;3.40;1.43;;;14.50;99.90;;;;;;5044343;28;21266;-81
2022/09/09 05:20:53;;;;;;;3.07;1.33;;;14.50;99.90;;;;;;5044926;28;21179;-81
2022/09/09 05:23:20;;;;;;;3.40;1.60;;;14.50;99.90;;;;;;5044351;28;20632;-81
2022/09/09 05:25:56;;;;;;;8.33;2.10;;;14.60;99.90;;;;;;5047078;28;21329;-81
2022/09/09 05:28:24;;;;;;;4.00;1.97;;;14.60;99.90;;;;;;5042570;28;20645;-80
2022/09/09 05:30:57;;;;;;;2.40;1.40;;;14.70;99.90;;;;;;5043985;28;20638;-80
2022/09/09 05:33:25;;;;;;;2.37;1.53;;;14.70;99.90;;;;;;5048247;28;20764;-80
2022/09/09 05:36:01;;;;;;;4.13;1.73;;;14.80;99.90;;;;;;5049212;28;20618;-80
2022/09/09 05:38:28;;;;;;;4.07;2.00;;;14.80;99.90;;;;;;5048916;28;20613;-80
2022/09/09 05:40:56;;;;;;;2.73;1.27;;;14.90;99.90;;;;;;5046250;28;21491;-80
2022/09/09 05:43:23;;;;;;;3.03;1.57;;;15.00;99.90;;;;;;5047388;28;20669;-80
2022/09/09 05:46:01;;;;;;;3.73;1.50;;;15.10;99.90;;;;;;5048797;28;20748;-80
2022/09/09 05:48:29;;;;;;;3.43;1.10;;;15.20;99.90;;;;;;5049728;28;20621;-79
2022/09/09 05:50:57;;;;;;;1.50;1.40;;;15.30;99.90;;;;;;5047253;28;20654;-82
2022/09/09 05:53:24;;;;;;;2.20;1.60;;;15.30;99.90;;;;;;5047922;28;20971;-80
2022/09/09 05:55:51;;;;;;;2.47;1.50;;;15.40;99.90;;;;;;5046712;28;20657;-82
2022/09/09 05:58:18;;;;;;;1.73;1.53;;;15.40;99.90;;;;;;5049279;28;20630;-82
2022/09/09 06:00:44;;;;;;;3.70;1.30;;;15.40;99.90;;;;;;5049416;28;21263;-80
2022/09/09 06:03:12;;;;;;;1.50;1.40;;;15.50;99.90;;;;;;5049178;28;20642;-80
2022/09/09 06:05:39;;;;;;;6.33;2.47;;;15.50;99.90;;;;;;5049115;28;20649;-81
2022/09/09 06:08:07;;;;;;;2.77;1.33;;;15.50;99.90;;;;;;5047359;28;21104;-80
2022/09/09 06:10:34;;;;;;;2.67;1.50;;;15.60;99.90;;;;;;5049390;28;20630;-82
2022/09/09 06:13:01;;;;;;;2.00;1.30;;;15.60;99.90;;;;;;5049570;28;20979;-80
2022/09/09 06:15:29;;;;;;;3.30;1.80;;;15.70;99.90;;;;;;5047720;28;20672;-80
2022/09/09 06:17:56;;;;;;;6.13;1.40;;;15.70;99.90;;;;;;5049076;28;20614;-80
2022/09/09 06:20:23;;;;;;;6.67;1.40;;;15.80;99.90;;;;;;5049110;28;21088;-80
2022/09/09 06:22:49;;;;;;;3.53;1.70;;;15.90;99.90;;;;;;5045557;28;20622;-80
2022/09/09 06:25:18;;;;;;;3.70;2.20;;;15.90;99.90;;;;;;5048518;28;21143;-80
2022/09/09 06:27:50;;;;;;;3.63;2.10;;;16.00;99.90;;;;;;5045808;28;20741;-80
2022/09/09 06:30:18;;;;;;;5.90;1.80;;;15.90;99.90;;;;;;5046520;28;20642;-80
2022/09/09 06:32:44;;;;;;;3.33;2.07;;;15.90;99.90;;;;;;5049356;28;20629;-80
2022/09/09 06:35:11;;;;;;;3.13;2.10;;;16.00;99.90;;;;;;5048454;28;21063;-80
2022/09/09 06:37:39;;;;;;;3.70;2.27;;;16.00;99.90;;;;;;5047928;28;20655;-80
2022/09/09 06:40:06;;;;;;;3.43;2.20;;;16.10;99.90;;;;;;5048158;28;20701;-80
2022/09/09 06:42:34;;;;;;;4.20;2.00;;;16.10;99.90;;;;;;5048497;28;20703;-80
2022/09/09 06:45:01;;;;;;;12.30;2.40;;;16.10;99.90;;;;;;5047979;28;20911;-80
2022/09/09 06:47:29;;;;;;;4.53;2.00;;;16.20;99.90;;;;;;5048204;28;21034;-80
2022/09/09 06:49:56;;;;;;;4.30;1.73;;;16.20;99.90;;;;;;5045679;28;20626;-80
2022/09/09 06:52:24;;;;;;;5.90;2.23;;;16.30;99.90;;;;;;5048547;28;21163;-80
2022/09/09 06:54:51;;;;;;;7.97;2.27;;;16.40;99.90;;;;;;5040160;28;21175;-80
2022/09/09 06:57:17;;;;;;;3.80;1.90;;;16.50;99.90;;;;;;5041894;28;20629;-79
2022/09/09 06:59:45;;;;;;;7.00;2.20;;;16.60;99.90;;;;;;5041803;28;20633;-80
2022/09/09 07:02:12;;;;;;;3.70;1.90;;;16.70;99.90;;;;;;5042250;28;21382;-80
2022/09/09 07:04:39;;;;;;;4.83;2.13;;;16.80;99.90;;;;;;5042435;28;20650;-80
2022/09/09 07:07:06;;;;;;;8.50;2.13;;;17.00;99.90;;;;;;5046758;28;20677;-81
2022/09/09 07:09:32;;;;;;;3.10;1.50;;;17.00;99.90;;;;;;5043160;28;20630;-82
2022/09/09 07:12:00;;;;;;;4.97;2.00;;;17.20;99.90;;;;;;5039136;28;20641;-80
2022/09/09 07:14:27;;;;;;;4.33;1.80;;;17.30;99.90;;;;;;5043680;28;21243;-80
2022/09/09 07:16:55;;;;;;;4.07;1.67;;;17.30;99.90;;;;;;5039198;28;20674;-80
2022/09/09 07:19:23;;;;;;;4.23;1.97;;;17.40;99.90;;;;;;5041830;28;20644;-80
2022/09/09 07:21:53;;;;;;;3.13;1.90;;;17.50;99.90;;;;;;5043866;28;20626;-81
2022/09/09 07:24:19;;;;;;;4.50;1.80;;;17.60;99.90;;;;;;5041262;28;20707;-81
2022/09/09 07:26:46;;;;;;;3.00;1.77;;;17.60;99.90;;;;;;5042211;28;20630;-81
2022/09/09 07:29:13;;;;;;;4.43;1.47;;;17.70;99.90;;;;;;5043879;28;20641;-80
2022/09/09 07:31:42;;;;;;;6.07;1.73;;;17.80;99.90;;;;;;5038827;28;20630;-80
2022/09/09 07:34:10;;;;;;;2.83;1.60;;;17.90;99.90;;;;;;5041587;28;20653;-80
2022/09/09 07:36:38;;;;;;;3.43;2.20;;;18.00;99.90;;;;;;5038373;28;20711;-80
2022/09/09 07:39:07;;;;;;;5.77;1.80;;;18.00;99.90;;;;;;5041259;28;20642;-79
2022/09/09 07:41:36;;;;;;;3.97;1.57;;;18.10;99.90;;;;;;5038844;28;20618;-81
2022/09/09 07:44:06;;;;;;;4.13;1.10;;;18.30;99.90;;;;;;5040752;28;20685;-81
2022/09/09 07:46:33;;;;;;;3.17;1.77;;;18.30;99.90;;;;;;5040376;28;20703;-81
2022/09/09 07:49:00;;;;;;;2.20;1.40;;;18.40;99.90;;;;;;5040374;28;21229;-82
2022/09/09 07:51:31;;;;;;;2.97;1.40;;;18.40;99.90;;;;;;5040800;28;20632;-81
2022/09/09 07:54:01;;;;;;;4.10;1.80;;;18.40;99.90;;;;;;5041616;28;20650;-82
2022/09/09 07:56:29;;;;;;;4.57;1.80;;;18.50;99.90;;;;;;5041749;28;20629;-82
2022/09/09 07:58:58;;;;;;;3.20;2.27;;;18.60;99.90;;;;;;5040060;28;20974;-82
2022/09/09 08:01:28;;;;;;;1.57;1.13;;;18.60;99.90;;;;;;5043014;28;21167;-82
2022/09/09 08:03:58;;;;;;;5.27;1.23;;;18.60;99.90;;;;;;5041135;28;20737;-82
2022/09/09 08:06:26;;;;;;;2.87;1.63;;;18.60;99.90;;;;;;5043761;28;20731;-80
2022/09/09 08:08:55;;;;;;;3.60;1.60;;;18.70;99.90;;;;;;5045899;28;20864;-80
2022/09/09 08:11:25;;;;;;;2.90;1.40;;;18.70;99.90;;;;;;5044905;28;20725;-80
2022/09/09 08:13:52;;;;;;;1.50;1.30;;;18.80;99.90;;;;;;5046137;28;20653;-81
2022/09/09 08:16:22;;;;;;;1.63;1.10;;;18.90;99.90;;;;;;5045522;28;20701;-81
2022/09/09 08:18:51;;;;;;;3.00;1.40;;;18.90;99.90;;;;;;5046547;28;20624;-81
2022/09/09 08:21:21;;;;;;;5.33;1.60;;;19.10;99.90;;;;;;5045837;28;20724;-80
2022/09/09 08:23:48;;;;;;;3.33;1.53;;;19.20;99.90;;;;;;5045999;28;21285;-81
2022/09/09 08:26:22;;;;;;;4.00;1.40;;;19.30;99.90;;;;;;5045700;28;20629;-81
2022/09/09 08:28:50;;;;;;;9.07;1.73;;;19.30;99.90;;;;;;5045258;28;21299;-80
2022/09/09 08:31:19;;;;;;;2.50;1.30;;;19.40;99.90;;;;;;5045205;28;20641;-80
2022/09/09 08:33:46;;;;;;;4.63;1.80;;;19.50;99.90;;;;;;5046771;28;20657;-81
2022/09/09 08:36:16;;;;;;;4.13;1.37;;;19.60;99.90;;;;;;5044896;28;20662;-81
2022/09/09 08:38:43;;;;;;;11.97;3.30;;;19.70;99.90;;;;;;5046181;28;21038;-80
2022/09/09 08:41:39;;;;;;;2.50;1.50;;;19.90;99.90;;;;;;5047010;28;20621;-79
2022/09/09 08:44:11;;;;;;;4.87;1.40;;;19.70;99.90;;;;;;5045690;28;20661;-79
2022/09/09 08:46:49;;;;;;;2.00;1.20;;;19.80;99.90;;;;;;5044923;28;20622;-81
2022/09/09 08:49:32;;;;;;;3.27;1.30;;;19.60;99.90;;;;;;5046342;28;21017;-87
2022/09/09 08:52:00;;;;;;;6.73;1.53;;;19.80;99.90;;;;;;5039803;28;20656;-89
2022/09/09 08:54:36;;;;;;;11.23;1.97;;;19.90;99.90;;;;;;5046351;28;20654;-83
2022/09/09 08:57:10;;;;;;;3.00;1.30;;;20.20;99.90;;;;;;5038883;28;20614;-84
2022/09/09 08:59:37;;;;;;;3.73;1.40;;;20.40;99.90;;;;;;5037872;28;20626;-85
2022/09/09 09:02:15;;;;;;;2.53;0.90;;;20.50;99.90;;;;;;5038983;28;20641;-85
2022/09/09 09:04:51;;;;;;;3.40;1.13;;;20.60;99.90;;;;;;5037276;28;20648;-84
2022/09/09 09:07:29;;;;;;;4.00;1.30;;;20.70;99.90;;;;;;5037826;28;20618;-85
2022/09/09 09:10:02;;;;;;;3.10;0.70;;;20.90;99.90;;;;;;5041593;28;21198;-85
2022/09/09 09:12:36;;;;;;;2.80;1.23;;;21.00;99.90;;;;;;5039977;28;20664;-84
2022/09/09 09:15:03;;;;;;;3.83;1.00;;;21.20;99.90;;;;;;5040765;28;20645;-84
2022/09/09 09:17:33;;;;;;;5.03;1.60;;;21.30;99.90;;;;;;5039028;28;20638;-83
2022/09/09 09:20:00;;;;;;;2.77;1.30;;;21.40;99.90;;;;;;5040158;28;20646;-84
2022/09/09 09:22:32;;;;;;;2.03;1.20;;;21.50;99.90;;;;;;5039461;28;21320;-84
2022/09/09 09:25:10;;;;;;;1.97;0.73;;;21.60;99.90;;;;;;5043505;28;20697;-84
2022/09/09 09:27:44;;;;;;;3.63;1.30;;;21.80;99.90;;;;;;5037542;28;20661;-84
2022/09/09 09:30:17;;;;;;;2.37;1.23;;;22.00;99.90;;;;;;5043063;28;20678;-83
2022/09/09 09:32:53;;;;;;;1.73;0.80;;;22.10;99.90;;;;;;5037567;28;20642;-84
2022/09/09 09:35:19;;;;;;;3.40;0.93;;;22.20;99.90;;;;;;5037511;28;20622;-83
2022/09/09 09:37:46;;;;;;;2.10;1.20;;;22.30;99.90;;;;;;5037983;28;20645;-84
2022/09/09 09:40:15;;;;;;;3.73;1.40;;;22.20;99.90;;;;;;5043215;28;20649;-84
2022/09/09 09:42:52;;;;;;;3.43;1.23;;;21.80;99.90;;;;;;5042566;28;20661;-84
2022/09/09 09:45:29;;;;;;;4.10;1.00;;;20.70;99.90;;;;;;5047526;28;20633;-85
2022/09/09 09:48:01;;;;;;;3.47;1.50;;;19.80;99.90;;;;;;5042506;28;21135;-85
2022/09/09 09:50:29;;;;;;;3.03;0.80;;;19.20;99.90;;;;;;5045435;28;20641;-86
2022/09/09 09:52:58;;;;;;;2.33;0.83;;;18.90;99.90;;;;;;5048451;28;20676;-86
2022/09/09 09:55:27;;;;;;;2.23;0.73;;;18.70;99.90;;;;;;5048143;28;20633;-86
2022/09/09 09:58:01;;;;;;;1.27;0.70;;;18.60;99.90;;;;;;5045956;28;20652;-86
2022/09/09 10:00:29;;;;;;;1.87;1.00;;;18.60;99.90;;;;;;5047172;28;20644;-86
2022/09/09 10:02:56;;;;;;;3.57;0.87;;;18.80;99.90;;;;;;5047656;28;20989;-86
2022/09/09 10:05:27;;;;;;;1.70;1.33;;;19.00;99.90;;;;;;5048369;28;20625;-86
2022/09/09 10:08:05;;;;;;;2.90;0.90;;;19.20;99.90;;;;;;5046419;28;20693;-85
2022/09/09 10:10:51;;;;;;;1.00;0.50;;;19.30;99.90;;;;;;5042905;28;20673;-85
2022/09/09 10:13:25;;;;;;;1.97;0.73;;;19.60;99.90;;;;;;5047084;28;20653;-85
2022/09/09 10:16:06;;;;;;;1.87;0.70;;;19.90;99.90;;;;;;5045228;28;20633;-85
2022/09/09 10:18:52;;;;;;;0.70;0.60;;;20.10;99.90;;;;;;5046446;28;20721;-85
2022/09/09 10:21:33;;;;;;;2.50;0.73;;;20.40;99.90;;;;;;5049219;28;20704;-85
2022/09/09 10:24:18;;;;;;;1.90;0.60;;;20.70;99.90;;;;;;5047991;28;20652;-85
2022/09/09 10:26:53;;;;;;;1.97;0.63;;;20.90;99.90;;;;;;5048047;28;20630;-83
2022/09/09 10:29:43;;;;;;;1.90;0.80;;;21.30;99.90;;;;;;5047945;28;20692;-85
2022/09/09 10:32:32;;;;;;;1.67;0.60;;;21.60;99.90;;;;;;5044977;28;20731;-85
2022/09/09 10:35:09;;;;;;;5.03;1.07;;;21.90;99.90;;;;;;5044881;28;20647;-83
2022/09/09 10:45:12;;;;;;;3.30;1.07;;;22.60;99.90;;;;;;5717193;22;21106;-91
2022/09/09 10:48:04;;;;;;;2.23;1.30;;;23.00;99.90;;;;;;5029526;28;20617;-94
2022/09/09 10:50:51;;;;;;;0.97;0.87;;;23.20;99.90;;;;;;5030404;28;20750;-90
2022/09/09 10:53:28;;;;;;;3.43;1.10;;;23.10;99.90;;;;;;5028116;28;20726;-91
2022/09/09 10:56:06;;;;;;;1.53;0.70;;;23.30;99.90;;;;;;5025868;28;20623;-91
2022/09/09 10:58:42;;;;;;;3.00;1.60;;;23.40;99.90;;;;;;5029731;28;20622;-93
2022/09/09 11:01:17;;;;;;;5.17;1.57;;;23.20;99.90;;;;;;5024960;28;20667;-93
2022/09/09 11:03:49;;;;;;;3.70;1.17;;;23.00;99.90;;;;;;5028010;28;20749;-91
2022/09/09 11:06:20;;;;;;;1.43;0.90;;;23.10;99.90;;;;;;5028283;28;20619;-91
2022/09/09 11:08:49;;;;;;;2.57;1.17;;;23.40;99.90;;;;;;5021824;28;20676;-91
2022/09/09 11:11:22;;;;;;;3.97;1.47;;;23.20;99.50;;;;;;5025355;28;20724;-91
2022/09/09 11:13:55;;;;;;;3.00;1.23;;;23.40;99.30;;;;;;5024123;28;20749;-91
2022/09/09 11:16:31;;;;;;;2.50;0.80;;;23.80;97.60;;;;;;5018375;28;21205;-91
2022/09/09 11:19:10;;;;;;;5.53;1.70;;;24.00;97.30;;;;;;5022609;28;20668;-92
2022/09/09 11:21:53;;;;;;;1.50;0.97;;;24.50;95.10;;;;;;5023795;28;20726;-92
2022/09/09 11:25:06;;;;;;;1.40;0.93;;;24.40;96.90;;;;;;5021510;28;20659;-91
2022/09/09 11:28:22;;;;;;;3.10;1.20;;;24.30;98.10;;;;;;5005969;28;20642;-92
2022/09/09 11:31:39;;;;;;;2.53;1.10;;;23.90;93.80;;;;;;4947309;28;20669;-92
2022/09/09 11:34:49;;;;;;;2.00;1.40;;;23.20;92.70;;;;;;5015521;28;20666;-93
2022/09/09 11:37:58;;;;;;;2.83;1.27;;;22.80;95.80;;;;;;5028485;28;20630;-91
2022/09/09 11:40:27;;;;;;;2.90;1.57;;;22.50;98.70;;;;;;5028871;28;20659;-93
2022/09/09 11:43:09;;;;;;;2.67;1.33;;;22.00;99.90;;;;;;5030889;28;21370;-91
2022/09/09 11:45:37;;;;;;;4.00;0.97;;;21.50;99.90;;;;;;5026251;28;20658;-92
2022/09/09 11:48:06;;;;;;;1.50;0.67;;;20.90;99.90;;;;;;5026094;28;20719;-91
2022/09/09 11:50:36;;;;;;;2.10;1.03;;;20.60;99.90;;;;;;5023408;28;20715;-90
2022/09/09 11:53:22;;;;;;;3.40;1.37;;;20.50;99.90;;;;;;5023451;28;20687;-91
2022/09/09 11:55:49;;;;;;;1.27;0.70;;;20.20;99.90;;;;;;5020900;28;20924;-92
2022/09/09 11:58:18;;;;;;;2.20;1.17;;;20.30;99.90;;;;;;5025282;28;20664;-89
2022/09/09 12:00:48;;;;;;;5.33;0.80;;;20.60;99.90;;;;;;5027270;28;21108;-90
2022/09/09 12:03:37;;;;;;;1.10;0.40;;;20.90;99.90;;;;;;5028816;28;20674;-92
2022/09/09 12:06:16;;;;;;;1.73;0.93;;;21.30;99.90;;;;;;5030451;28;20637;-91
2022/09/09 12:08:47;;;;;;;0.73;0.40;;;21.60;99.90;;;;;;5022483;28;20615;-90
2022/09/09 12:11:25;;;;;;;1.10;0.50;;;21.50;97.60;;;;;;5022815;28;20639;-89
2022/09/09 12:13:54;;;;;;;1.63;0.50;;;21.90;98.10;;;;;;5022026;28;21334;-90
2022/09/09 12:16:34;;;;;;;1.43;0.53;;;22.30;96.60;;;;;;5022130;28;20649;-91
2022/09/09 12:19:16;;;;;;;0.90;0.50;;;22.10;93.70;;;;;;5034247;28;20685;-89
2022/09/09 12:21:52;;;;;;;0.60;0.40;;;22.10;95.90;;;;;;5024120;28;20635;-89
2022/09/09 12:24:30;;;;;;;0.50;0.47;;;22.50;91.50;;;;;;5023830;28;20658;-91
2022/09/09 12:27:17;;;;;;;;;;;;;;;;;;;;;
2022/09/09 12:29:55;;;;;;;1.00;0.90;;;22.40;92.50;;;;;;5028161;28;20975;-89
2022/09/09 12:32:25;;;;;;;0.53;0.33;;;22.40;89.60;;;;;;5028102;28;20657;-88
2022/09/09 12:34:59;;;;;;;1.33;0.50;;;22.50;85.30;;;;;;5024780;28;21141;-89
2022/09/09 12:37:34;;;;;;;2.10;0.70;;;23.30;84.90;;;;;;5022521;28;20697;-89
2022/09/09 12:40:02;;;;;;;1.07;0.30;;;23.80;76.60;;;;;;5021451;28;20670;-88
2022/09/09 12:42:30;;;;;;;1.13;0.40;;;24.10;78.20;;;;;;5023686;28;20623;-88
2022/09/09 12:44:58;;;;;;;0.50;0.40;;;24.60;71.40;;;;;;5021221;28;21315;-88
2022/09/09 12:47:34;;;;;;;0.80;0.53;;;24.90;71.70;;;;;;5024908;28;20734;-89
2022/09/09 12:50:02;;;;;;;0.87;0.40;;;25.40;69.90;;;;;;5019550;28;20619;-90
2022/09/09 12:52:34;;;;;;;1.07;0.97;;;25.70;66.60;;;;;;5024680;28;20656;-90
2022/09/09 12:55:03;;;;;;;1.53;0.67;;;25.60;64.90;;;;;;5022836;28;20658;-90
2022/09/09 12:57:35;;;;;;;1.90;0.80;;;25.80;63.60;;;;;;5024522;28;21055;-90
2022/09/09 13:00:10;;;;;;;2.10;0.50;;;25.10;62.40;;;;;;5023143;28;20670;-91
2022/09/09 13:02:46;;;;;;;1.50;0.50;;;25.30;63.00;;;;;;5023909;28;21229;-90
2022/09/09 13:05:19;;;;;;;1.10;0.67;;;24.80;63.20;;;;;;5025181;28;21037;-89
2022/09/09 13:07:47;;;;;;;3.03;0.73;;;24.80;65.40;;;;;;5023340;28;20716;-89
2022/09/09 13:10:20;;;;;;;1.90;0.50;;;24.40;65.70;;;;;;5023529;28;20626;-90
2022/09/09 13:12:47;;;;;;;3.07;1.03;;;24.60;64.70;;;;;;5022248;28;20662;-90
2022/09/09 13:15:22;;;;;;;3.13;0.70;;;24.50;67.50;;;;;;5025410;28;20720;-91
2022/09/09 13:17:55;;;;;;;1.43;0.50;;;24.00;66.40;;;;;;5027280;28;20622;-91
2022/09/09 13:20:24;;;;;;;4.40;0.57;;;23.50;68.70;;;;;;5023802;28;20662;-89